Time;durP1;ratioP1;P1;durP2;ratioP2;P2;SDS_P1;SDS_P2;PMS_P1;PMS_P2;Temp;Humidity;BMP_temperature;BMP_pressure;BME280_temperature;BME280_humidity;BME280_pressure;Samples;Min_cycle;Max_cycle;Signal;HPM_P1;HPM_P2
2021/07/03 04:19:57;;;;;;;4.13;1.40;;;24.10;66.50;;;;;;6132072;22;1278723;-53
2021/07/03 04:22:22;;;;;;;4.20;1.23;;;24.10;66.60;;;;;;6203248;23;20091;-52
2021/07/03 04:24:48;;;;;;;4.78;1.40;;;24.10;66.60;;;;;;6204053;23;20008;-52
2021/07/03 04:27:13;;;;;;;5.18;1.35;;;24.10;66.50;;;;;;6204081;23;20000;-52
2021/07/03 04:29:40;;;;;;;4.35;1.63;;;24.10;66.40;;;;;;6203932;23;20091;-52
2021/07/03 04:32:06;;;;;;;5.10;1.38;;;24.10;66.40;;;;;;6204082;23;20154;-52
2021/07/03 04:34:32;;;;;;;4.18;1.40;;;24.10;66.50;;;;;;6203966;23;20035;-52
2021/07/03 04:36:58;;;;;;;7.25;1.55;;;24.10;66.50;;;;;;6203446;23;20607;-52
2021/07/03 04:39:24;;;;;;;9.55;2.05;;;24.10;66.50;;;;;;6204248;23;20325;-53
2021/07/03 04:41:51;;;;;;;3.40;1.33;;;24.00;66.60;;;;;;6203613;23;20469;-52
2021/07/03 04:44:17;;;;;;;4.45;1.38;;;24.00;66.70;;;;;;6203644;23;20061;-52
2021/07/03 04:46:44;;;;;;;4.28;2.03;;;24.10;66.90;;;;;;6203894;23;20004;-52
2021/07/03 04:49:10;;;;;;;7.45;2.70;;;24.00;65.20;;;;;;6203469;23;20100;-53
2021/07/03 04:51:36;;;;;;;7.75;3.25;;;24.00;62.90;;;;;;6203883;23;20088;-52
2021/07/03 04:54:03;;;;;;;11.55;3.00;;;24.00;61.50;;;;;;6203559;23;21001;-52
2021/07/03 04:56:29;;;;;;;9.98;3.00;;;23.90;61.80;;;;;;6203559;23;20004;-52
2021/07/03 04:58:56;;;;;;;4.65;2.97;;;23.90;60.90;;;;;;6203634;23;20111;-52
2021/07/03 05:01:22;;;;;;;7.25;3.03;;;23.90;59.80;;;;;;6203171;23;20411;-53
2021/07/03 05:03:48;;;;;;;5.43;2.92;;;23.80;59.70;;;;;;6201220;23;20011;-53
2021/07/03 05:06:14;;;;;;;5.80;2.80;;;23.80;59.20;;;;;;6203461;23;20005;-53
2021/07/03 05:08:39;;;;;;;6.45;3.38;;;23.80;59.10;;;;;;6202721;23;20617;-52
2021/07/03 05:11:05;;;;;;;6.43;3.50;;;23.80;58.60;;;;;;6203319;23;20008;-52
2021/07/03 05:13:31;;;;;;;5.80;3.28;;;23.70;58.20;;;;;;6203138;23;20005;-53
2021/07/03 05:15:57;;;;;;;7.70;3.78;;;23.70;58.20;;;;;;6203015;23;20008;-52
2021/07/03 05:18:22;;;;;;;8.52;3.03;;;23.70;58.20;;;;;;6204683;22;20004;-52
2021/07/03 05:20:48;;;;;;;5.70;3.22;;;23.60;58.30;;;;;;6236352;22;20541;-53
2021/07/03 05:24:25;;;;;;;7.57;3.47;;;23.60;58.30;;;;;;5046814;28;21076;-53
2021/07/03 05:28:42;;;;;;;7.57;3.40;;;23.60;59.20;;;;;;5054299;28;20428;-53
2021/07/03 05:31:08;;;;;;;10.32;3.20;;;23.60;60.00;;;;;;5037000;28;20664;-53
2021/07/03 05:33:34;;;;;;;5.50;2.72;;;23.60;60.90;;;;;;5035649;28;20025;-53
2021/07/03 05:36:02;;;;;;;5.93;3.22;;;23.70;60.80;;;;;;5038982;28;20022;-53
2021/07/03 05:38:28;;;;;;;8.30;3.22;;;23.70;61.20;;;;;;5034135;28;20056;-53
2021/07/03 05:40:58;;;;;;;7.00;2.75;;;23.70;61.50;;;;;;5035940;28;20040;-54
2021/07/03 05:43:24;;;;;;;4.80;2.60;;;23.70;61.60;;;;;;5034650;28;20292;-53
2021/07/03 05:45:51;;;;;;;8.05;3.15;;;23.70;61.80;;;;;;5027255;28;20060;-53
2021/07/03 05:48:17;;;;;;;5.30;2.35;;;23.70;61.90;;;;;;5036928;28;20503;-54
2021/07/03 05:51:37;;;;;;;4.95;3.08;;;23.70;61.70;;;;;;5068413;27;20426;-54
2021/07/03 05:54:03;;;;;;;5.70;2.72;;;23.70;62.40;;;;;;5058791;28;20750;-53
2021/07/03 05:56:28;;;;;;;8.40;3.30;;;23.70;62.50;;;;;;5059628;28;20700;-54
2021/07/03 05:58:55;;;;;;;9.00;2.63;;;23.70;62.70;;;;;;5065651;28;20025;-53
2021/07/03 06:01:22;;;;;;;6.25;2.85;;;23.70;62.90;;;;;;5080029;28;20024;-53
2021/07/03 06:03:47;;;;;;;10.65;3.17;;;23.70;63.10;;;;;;5079037;28;20084;-54
2021/07/03 06:06:13;;;;;;;5.97;2.78;;;23.70;63.10;;;;;;5077863;28;20103;-53
2021/07/03 06:08:39;;;;;;;5.15;2.88;;;23.70;63.20;;;;;;5078495;28;20122;-53
2021/07/03 06:11:05;;;;;;;6.65;3.00;;;23.80;63.30;;;;;;5078857;28;20024;-53
2021/07/03 06:13:30;;;;;;;6.00;2.72;;;23.70;63.30;;;;;;5079121;28;20024;-54
2021/07/03 06:15:56;;;;;;;5.70;2.88;;;23.70;63.50;;;;;;5079888;28;20127;-54
2021/07/03 06:18:22;;;;;;;5.18;2.75;;;23.70;63.50;;;;;;5079819;28;20024;-53
2021/07/03 06:20:47;;;;;;;6.13;2.47;;;23.70;63.60;;;;;;5079765;28;20021;-53
2021/07/03 06:24:00;;;;;;;6.05;2.83;;;23.70;63.30;;;;;;5100226;27;21044;-54
2021/07/03 06:26:26;;;;;;;8.32;2.65;;;23.80;63.90;;;;;;5100577;28;20474;-55
2021/07/03 06:28:52;;;;;;;5.25;3.13;;;23.80;64.00;;;;;;5100298;28;20023;-53
2021/07/03 06:31:18;;;;;;;7.40;2.92;;;23.70;63.70;;;;;;5090892;28;20016;-53
2021/07/03 06:33:44;;;;;;;10.68;3.70;;;23.80;63.50;;;;;;5098226;28;20509;-54
2021/07/03 06:37:58;;;;;;;6.30;2.90;;;23.80;62.70;;;;;;5058737;28;20896;-56
2021/07/03 06:40:24;;;;;;;9.10;2.85;;;23.80;63.50;;;;;;5041294;28;20057;-53
2021/07/03 06:42:49;;;;;;;6.05;2.40;;;23.80;63.90;;;;;;5027166;28;20111;-53
2021/07/03 06:45:15;;;;;;;8.50;2.65;;;23.80;63.90;;;;;;5027411;28;20145;-53
2021/07/03 06:47:41;;;;;;;7.18;2.72;;;23.80;64.10;;;;;;5029067;28;20083;-53
2021/07/03 06:50:07;;;;;;;9.00;2.75;;;23.80;64.10;;;;;;5029126;28;20585;-53
2021/07/03 06:52:33;;;;;;;4.78;2.25;;;23.80;64.20;;;;;;5028485;28;20060;-53
2021/07/03 06:54:59;;;;;;;6.55;2.63;;;23.80;64.30;;;;;;5031533;28;20049;-53
2021/07/03 06:57:25;;;;;;;5.53;2.33;;;23.80;64.50;;;;;;5032279;28;20029;-53
2021/07/03 06:59:50;;;;;;;7.45;2.60;;;23.80;64.50;;;;;;5033084;28;20039;-53
2021/07/03 07:02:18;;;;;;;8.18;3.25;;;23.80;64.50;;;;;;5031289;28;20037;-53
2021/07/03 07:04:43;;;;;;;6.35;2.78;;;23.90;64.60;;;;;;5030513;28;20029;-53
2021/07/03 07:07:09;;;;;;;7.65;3.10;;;23.80;64.60;;;;;;5026198;28;20037;-54
2021/07/03 07:09:35;;;;;;;5.15;2.47;;;23.80;65.20;;;;;;5031135;28;20017;-53
2021/07/03 07:12:01;;;;;;;5.70;2.55;;;23.80;64.60;;;;;;5026622;28;20389;-53
2021/07/03 07:14:26;;;;;;;5.05;2.35;;;23.80;64.40;;;;;;5034112;28;20079;-53
2021/07/03 07:16:53;;;;;;;10.18;3.85;;;23.80;64.50;;;;;;5028890;28;20034;-53
2021/07/03 07:19:18;;;;;;;10.05;2.67;;;23.80;64.50;;;;;;5031302;28;20037;-55
2021/07/03 07:21:44;;;;;;;11.07;3.05;;;23.90;64.30;;;;;;5033709;28;20443;-53
2021/07/03 07:24:10;;;;;;;5.53;2.70;;;23.90;64.80;;;;;;5034479;28;20021;-53
2021/07/03 07:26:36;;;;;;;8.77;2.50;;;23.90;64.50;;;;;;5029828;28;20138;-54
2021/07/03 07:29:02;;;;;;;4.57;2.30;;;23.80;64.60;;;;;;5030073;28;20037;-54
2021/07/03 07:31:27;;;;;;;4.35;1.95;;;23.80;64.60;;;;;;5031652;28;20618;-55
2021/07/03 07:33:53;;;;;;;5.53;2.53;;;23.90;64.70;;;;;;5021240;28;20780;-55
2021/07/03 07:36:19;;;;;;;5.43;2.75;;;23.80;64.60;;;;;;5021318;28;20909;-54
2021/07/03 07:38:44;;;;;;;6.97;2.70;;;23.80;64.70;;;;;;5020677;28;20032;-53
2021/07/03 07:41:10;;;;;;;7.63;3.17;;;23.90;64.70;;;;;;5020661;28;20037;-55
2021/07/03 07:47:16;;;;;;;11.50;3.28;;;23.90;64.30;;;;;;5065819;27;21194;-54
2021/07/03 07:49:41;;;;;;;6.72;3.13;;;23.90;64.70;;;;;;5049283;28;20045;-55
2021/07/03 07:52:07;;;;;;;6.10;3.40;;;23.80;64.40;;;;;;5041442;28;20030;-55
2021/07/03 07:54:33;;;;;;;8.73;3.17;;;23.90;64.50;;;;;;5047490;28;20021;-53
2021/07/03 07:56:59;;;;;;;5.88;3.03;;;23.90;64.70;;;;;;5043006;28;20029;-54
2021/07/03 07:59:28;;;;;;;5.43;2.85;;;23.90;64.80;;;;;;5044695;28;20435;-54
2021/07/03 08:01:53;;;;;;;6.30;3.22;;;23.90;64.90;;;;;;5047368;28;20032;-54
2021/07/03 08:04:19;;;;;;;5.32;3.05;;;23.90;65.00;;;;;;5041787;28;20017;-53
2021/07/03 08:06:45;;;;;;;5.75;2.85;;;23.90;65.10;;;;;;5043792;28;20068;-53
2021/07/03 08:09:11;;;;;;;7.53;3.10;;;23.90;65.10;;;;;;5043969;28;20035;-54
2021/07/03 08:11:37;;;;;;;5.28;3.30;;;23.90;65.10;;;;;;5043055;28;20061;-54
2021/07/03 08:14:03;;;;;;;5.30;2.72;;;23.90;65.20;;;;;;5047138;28;20617;-53
2021/07/03 08:16:29;;;;;;;6.80;2.80;;;23.90;65.20;;;;;;5048258;28;20095;-56
2021/07/03 08:18:55;;;;;;;6.03;2.97;;;23.90;65.20;;;;;;5052903;28;20036;-55
2021/07/03 08:21:20;;;;;;;6.38;3.40;;;23.90;65.20;;;;;;5048327;28;20036;-54
2021/07/03 08:23:46;;;;;;;7.15;3.17;;;23.90;65.30;;;;;;5050625;28;20029;-54
2021/07/03 08:26:12;;;;;;;6.15;3.40;;;23.90;65.40;;;;;;5048251;28;20043;-55
2021/07/03 08:28:38;;;;;;;5.93;3.08;;;23.90;65.30;;;;;;5053987;28;20056;-54
2021/07/03 08:31:04;;;;;;;8.38;2.95;;;23.90;65.50;;;;;;5055274;28;20094;-53
2021/07/03 08:33:30;;;;;;;8.48;2.85;;;23.90;65.50;;;;;;5051070;28;20017;-55
2021/07/03 08:35:56;;;;;;;6.10;2.60;;;23.90;65.50;;;;;;5051005;28;20099;-54
2021/07/03 08:38:22;;;;;;;4.30;2.50;;;23.90;66.00;;;;;;5051296;28;20021;-54
2021/07/03 08:40:49;;;;;;;7.57;3.10;;;23.90;65.50;;;;;;5052014;28;20060;-55
2021/07/03 08:43:14;;;;;;;8.30;3.13;;;23.90;65.60;;;;;;5051007;28;20107;-56
2021/07/03 08:45:40;;;;;;;6.90;3.15;;;23.90;65.60;;;;;;5046360;28;20123;-54
2021/07/03 08:48:06;;;;;;;9.68;3.60;;;23.90;65.60;;;;;;5053040;28;20537;-54
2021/07/03 08:50:32;;;;;;;5.47;3.10;;;23.90;65.60;;;;;;5043783;28;20029;-54
2021/07/03 08:52:58;;;;;;;4.63;2.70;;;23.90;66.20;;;;;;5045589;28;20024;-55
2021/07/03 08:55:26;;;;;;;7.65;3.60;;;23.90;65.70;;;;;;5047725;28;20033;-54
2021/07/03 08:59:55;;;;;;;7.57;3.63;;;23.90;65.20;;;;;;5067958;27;20529;-54
2021/07/03 09:02:34;;;;;;;8.48;2.95;;;23.90;65.70;;;;;;5064095;28;20024;-55
2021/07/03 09:05:00;;;;;;;5.40;3.03;;;23.90;66.20;;;;;;5059892;28;20059;-55
2021/07/03 09:07:35;;;;;;;7.28;3.08;;;23.90;65.70;;;;;;5064411;28;20024;-55
2021/07/03 09:10:02;;;;;;;6.15;3.10;;;24.00;65.90;;;;;;5059597;28;20032;-55
2021/07/03 09:12:30;;;;;;;5.30;3.00;;;24.00;65.80;;;;;;5062021;28;20028;-54
2021/07/03 09:14:55;;;;;;;5.28;2.97;;;24.00;65.90;;;;;;5061505;28;20020;-53
2021/07/03 09:17:21;;;;;;;5.60;2.85;;;23.90;65.80;;;;;;5061120;28;20032;-54
2021/07/03 09:19:51;;;;;;;6.50;2.83;;;23.90;65.90;;;;;;5059855;28;20036;-54
2021/07/03 09:22:18;;;;;;;5.40;2.70;;;24.00;65.80;;;;;;5059972;28;20016;-54
2021/07/03 09:24:43;;;;;;;6.80;3.72;;;23.90;65.50;;;;;;5060087;28;20495;-54
2021/07/03 09:27:12;;;;;;;6.00;3.13;;;23.90;65.50;;;;;;5060350;28;20024;-56
2021/07/03 09:29:49;;;;;;;7.78;3.15;;;24.00;65.50;;;;;;5059714;28;20044;-54
2021/07/03 09:32:14;;;;;;;5.82;3.30;;;24.00;65.70;;;;;;5060566;28;20055;-53
2021/07/03 09:34:41;;;;;;;6.50;3.05;;;24.00;65.60;;;;;;5058948;28;20068;-54
2021/07/03 09:37:07;;;;;;;6.72;3.33;;;23.90;65.40;;;;;;5061301;28;20102;-54
2021/07/03 09:39:33;;;;;;;6.45;3.10;;;24.00;65.50;;;;;;5058705;28;20617;-53
2021/07/03 09:41:59;;;;;;;7.35;3.00;;;24.00;65.60;;;;;;5061020;28;20025;-54
2021/07/03 09:44:25;;;;;;;5.82;3.22;;;24.00;65.80;;;;;;5061346;28;20039;-54
2021/07/03 09:46:53;;;;;;;7.43;3.03;;;24.00;65.80;;;;;;5059825;28;20039;-55
2021/07/03 09:49:20;;;;;;;10.05;3.10;;;24.00;65.90;;;;;;5062504;28;20025;-55
2021/07/03 09:51:47;;;;;;;5.70;3.33;;;24.00;65.90;;;;;;5068161;28;20024;-54
2021/07/03 09:54:17;;;;;;;5.80;3.45;;;24.00;65.80;;;;;;5067090;28;20086;-54
2021/07/03 09:56:44;;;;;;;5.25;2.80;;;24.00;65.70;;;;;;5070445;28;20037;-55
2021/07/03 09:59:10;;;;;;;5.85;3.45;;;24.00;65.60;;;;;;5061048;28;20070;-54
2021/07/03 10:01:43;;;;;;;5.93;3.33;;;24.00;65.70;;;;;;5061480;28;20909;-54
2021/07/03 10:04:10;;;;;;;6.97;3.15;;;24.00;65.80;;;;;;5066714;28;20374;-54
2021/07/03 10:08:22;;;;;;;7.63;3.53;;;24.00;65.30;;;;;;5028359;27;20873;-55
2021/07/03 10:10:58;;;;;;;6.55;3.63;;;24.00;65.80;;;;;;5022478;27;20109;-54
2021/07/03 10:13:28;;;;;;;12.75;3.72;;;24.00;65.80;;;;;;5021207;27;20674;-55
2021/07/03 10:16:05;;;;;;;7.97;4.68;;;24.00;65.80;;;;;;5025530;27;20186;-55
2021/07/03 10:18:32;;;;;;;9.05;4.80;;;24.00;65.50;;;;;;5016722;27;20028;-56
2021/07/03 10:21:17;;;;;;;9.70;4.15;;;24.00;65.60;;;;;;5018801;27;20028;-56
2021/07/03 10:23:44;;;;;;;7.60;4.00;;;24.00;65.60;;;;;;5023355;27;20030;-55
2021/07/03 10:26:12;;;;;;;8.98;3.95;;;24.00;65.70;;;;;;5018360;27;20021;-54
2021/07/03 10:28:42;;;;;;;8.25;4.35;;;24.00;65.60;;;;;;5020794;27;20485;-55
2021/07/03 10:31:09;;;;;;;9.50;3.58;;;24.00;65.70;;;;;;5016521;27;20757;-54
2021/07/03 10:33:49;;;;;;;13.77;4.40;;;24.00;65.80;;;;;;5016280;27;20064;-55
2021/07/03 10:36:32;;;;;;;12.38;5.20;;;24.00;65.80;;;;;;5016698;27;20046;-54
2021/07/03 10:39:00;;;;;;;12.52;4.55;;;24.00;65.70;;;;;;5026467;27;20021;-56
2021/07/03 10:41:30;;;;;;;9.40;3.92;;;24.00;65.80;;;;;;5024207;27;20510;-56
2021/07/03 10:44:05;;;;;;;8.55;4.43;;;24.00;65.70;;;;;;5030237;27;20134;-54
2021/07/03 10:46:44;;;;;;;9.88;3.92;;;24.00;65.90;;;;;;5023023;27;20039;-54
2021/07/03 10:49:13;;;;;;;13.20;4.97;;;24.00;65.90;;;;;;5019065;27;20033;-54
2021/07/03 10:51:44;;;;;;;13.38;4.60;;;24.00;65.80;;;;;;5018033;27;20018;-55
2021/07/03 10:54:23;;;;;;;9.10;4.55;;;24.00;65.90;;;;;;5019778;27;20033;-56
2021/07/03 10:57:01;;;;;;;11.55;4.93;;;24.00;65.90;;;;;;5018889;27;20026;-54
2021/07/03 10:59:29;;;;;;;7.57;3.63;;;24.00;66.00;;;;;;5004813;27;20433;-54
2021/07/03 11:02:10;;;;;;;8.95;4.20;;;24.00;65.90;;;;;;5016390;27;20057;-55
2021/07/03 11:04:54;;;;;;;8.02;4.20;;;24.00;66.00;;;;;;5020527;27;20141;-55
2021/07/03 11:07:24;;;;;;;9.70;4.25;;;24.00;65.90;;;;;;5016682;27;20083;-55
2021/07/03 11:09:50;;;;;;;8.20;3.95;;;24.00;65.90;;;;;;5018518;27;20563;-54
2021/07/03 11:12:22;;;;;;;7.22;4.47;;;24.00;66.00;;;;;;5024591;27;20037;-55
2021/07/03 11:14:55;;;;;;;8.07;4.75;;;24.00;65.90;;;;;;5018111;27;20029;-54
2021/07/03 11:17:25;;;;;;;9.45;4.10;;;24.00;65.90;;;;;;5017097;27;20034;-55
2021/07/03 11:19:53;;;;;;;8.85;4.60;;;24.00;65.90;;;;;;5005572;28;20425;-55
2021/07/03 11:22:23;;;;;;;8.90;5.03;;;24.10;65.90;;;;;;5007565;28;20053;-54
2021/07/03 11:24:51;;;;;;;9.18;4.38;;;24.10;65.90;;;;;;5011830;28;20387;-53
2021/07/03 11:27:38;;;;;;;10.70;4.20;;;24.10;65.90;;;;;;5005957;28;20095;-55
2021/07/03 11:30:23;;;;;;;10.57;4.28;;;24.00;65.80;;;;;;5002342;28;20030;-56
2021/07/03 11:32:55;;;;;;;9.25;4.53;;;24.00;65.80;;;;;;5004435;28;20060;-54
2021/07/03 11:35:21;;;;;;;9.40;4.32;;;24.10;65.90;;;;;;5007369;28;20021;-54
2021/07/03 11:37:48;;;;;;;9.57;3.90;;;24.10;65.90;;;;;;5004351;28;20028;-55
2021/07/03 11:40:19;;;;;;;10.23;4.65;;;24.10;65.90;;;;;;5007122;28;20025;-54
2021/07/03 11:43:12;;;;;;;8.75;4.50;;;24.00;65.40;;;;;;5100450;27;20943;-54
2021/07/03 11:45:40;;;;;;;8.27;3.80;;;24.00;65.90;;;;;;5066502;28;20028;-54
2021/07/03 11:48:10;;;;;;;9.45;3.67;;;24.10;65.90;;;;;;5066885;28;20437;-54
2021/07/03 11:50:40;;;;;;;7.53;4.18;;;24.10;65.80;;;;;;5082553;28;20119;-55
2021/07/03 11:53:09;;;;;;;11.73;4.68;;;24.10;65.80;;;;;;5085223;28;20024;-54
2021/07/03 11:55:37;;;;;;;8.05;4.03;;;24.10;65.80;;;;;;5090681;28;20020;-54
2021/07/03 11:58:03;;;;;;;11.32;4.30;;;24.10;65.80;;;;;;5083652;28;20028;-56
2021/07/03 12:00:35;;;;;;;9.75;3.75;;;24.10;65.80;;;;;;5086224;28;20128;-54
2021/07/03 12:03:02;;;;;;;8.68;4.10;;;24.10;65.80;;;;;;5081379;28;20020;-55
2021/07/03 12:05:31;;;;;;;9.15;4.18;;;24.10;66.00;;;;;;5085364;28;20012;-57
2021/07/03 12:07:58;;;;;;;8.02;3.88;;;24.10;65.90;;;;;;5081505;28;20056;-55
2021/07/03 12:10:38;;;;;;;9.38;4.07;;;24.10;65.90;;;;;;5083542;28;20017;-54
2021/07/03 12:13:06;;;;;;;7.70;3.75;;;24.10;65.80;;;;;;5082787;28;20047;-55
2021/07/03 12:15:32;;;;;;;7.55;4.13;;;24.10;66.40;;;;;;5094091;28;20016;-57
2021/07/03 12:17:59;;;;;;;7.65;4.10;;;24.10;65.90;;;;;;5083950;28;20624;-55
2021/07/03 12:20:25;;;;;;;9.27;3.72;;;24.10;65.80;;;;;;5094540;28;20016;-54
2021/07/03 12:23:04;;;;;;;6.97;4.30;;;24.10;65.90;;;;;;5084488;28;20060;-54
2021/07/03 12:25:32;;;;;;;8.35;4.10;;;24.10;65.80;;;;;;5090376;28;20023;-55
2021/07/03 12:28:02;;;;;;;7.85;3.78;;;24.10;65.80;;;;;;5085359;28;20031;-54
2021/07/03 12:30:32;;;;;;;9.13;4.13;;;24.10;65.90;;;;;;5083644;28;20027;-54
2021/07/03 12:33:06;;;;;;;8.80;4.30;;;24.10;65.90;;;;;;5086785;28;20055;-54
2021/07/03 12:35:33;;;;;;;;;;;24.10;65.90;;;;;;5092042;28;20050;-54
2021/07/03 12:37:59;;;;;;;7.47;4.38;;;24.10;65.90;;;;;;5090218;28;19912;-56
2021/07/03 12:40:30;;;;;;;7.53;3.83;;;24.10;65.90;;;;;;5090914;28;20018;-55
2021/07/03 12:42:59;;;;;;;8.35;5.00;;;24.10;66.10;;;;;;5092078;28;20135;-55
2021/07/03 12:45:25;;;;;;;7.28;4.15;;;24.20;66.30;;;;;;5085647;28;20116;-55
2021/07/03 12:48:10;;;;;;;10.18;4.03;;;24.20;66.30;;;;;;5098285;28;20056;-54
2021/07/03 12:50:36;;;;;;;9.30;4.00;;;24.20;66.30;;;;;;5099195;28;20027;-57
2021/07/03 12:53:06;;;;;;;8.35;3.83;;;24.20;66.20;;;;;;5092936;28;20082;-56
2021/07/03 12:55:39;;;;;;;9.00;4.53;;;24.20;66.20;;;;;;5085710;28;20035;-56
2021/07/03 12:58:16;;;;;;;14.70;5.00;;;24.20;66.00;;;;;;5085582;28;20032;-57
2021/07/03 13:00:47;;;;;;;9.02;4.03;;;24.20;66.00;;;;;;5084972;28;20092;-56
2021/07/03 13:03:12;;;;;;;8.60;4.18;;;24.20;65.90;;;;;;5085555;28;20028;-56
2021/07/03 13:05:38;;;;;;;10.52;3.83;;;24.20;65.80;;;;;;5085518;28;20036;-56
2021/07/03 13:08:04;;;;;;;7.97;4.03;;;24.20;65.80;;;;;;5085497;28;20463;-56
2021/07/03 13:10:30;;;;;;;8.13;4.15;;;24.20;65.80;;;;;;5085387;28;20044;-56
2021/07/03 13:12:58;;;;;;;8.18;4.10;;;24.20;65.80;;;;;;5085233;28;20062;-58
2021/07/03 13:15:23;;;;;;;7.38;4.22;;;24.20;65.80;;;;;;5085234;28;20165;-56
2021/07/03 13:17:49;;;;;;;9.73;4.85;;;24.20;65.80;;;;;;5085279;28;20053;-56
2021/07/03 13:20:14;;;;;;;7.60;4.38;;;24.20;65.90;;;;;;5085138;28;20495;-58
2021/07/03 13:22:40;;;;;;;11.07;4.88;;;24.20;65.80;;;;;;5084591;28;20043;-56
2021/07/03 13:25:06;;;;;;;11.25;4.95;;;24.20;65.90;;;;;;5084927;28;20036;-56
2021/07/03 13:27:32;;;;;;;10.68;4.18;;;24.20;65.90;;;;;;5084918;28;20032;-59
2021/07/03 13:30:56;;;;;;;8.07;4.43;;;24.20;65.60;;;;;;5078524;27;20488;-57
2021/07/03 13:33:21;;;;;;;7.55;3.92;;;24.20;66.10;;;;;;5059825;28;20186;-56
2021/07/03 13:35:47;;;;;;;8.80;4.35;;;24.20;66.00;;;;;;5060002;28;20041;-55
2021/07/03 13:38:13;;;;;;;11.88;4.90;;;24.20;65.80;;;;;;5060014;28;20106;-55
2021/07/03 13:40:39;;;;;;;8.88;4.55;;;24.20;66.10;;;;;;5059975;28;20031;-56
2021/07/03 13:43:04;;;;;;;6.60;3.53;;;24.20;66.00;;;;;;5059555;28;20609;-55
2021/07/03 13:45:30;;;;;;;12.13;4.65;;;24.20;66.00;;;;;;5059820;28;20017;-56
2021/07/03 13:47:56;;;;;;;9.23;4.22;;;24.20;66.20;;;;;;5059789;28;20361;-56
2021/07/03 13:50:22;;;;;;;7.22;3.90;;;24.20;66.10;;;;;;5059624;28;20094;-56
2021/07/03 13:52:47;;;;;;;7.03;3.83;;;24.20;66.00;;;;;;5059412;28;20024;-56
2021/07/03 13:55:13;;;;;;;9.10;4.60;;;24.20;66.00;;;;;;5059596;28;20056;-56
2021/07/03 13:57:39;;;;;;;9.98;4.57;;;24.20;66.10;;;;;;5059696;28;20056;-61
2021/07/03 14:00:07;;;;;;;12.27;3.65;;;24.20;66.10;;;;;;5059381;28;20064;-58
2021/07/03 14:02:32;;;;;;;8.27;4.30;;;24.20;66.00;;;;;;5059288;28;20036;-56
2021/07/03 14:04:58;;;;;;;8.07;3.72;;;24.20;66.00;;;;;;5059115;28;20068;-56
2021/07/03 14:07:25;;;;;;;19.08;5.45;;;24.20;66.00;;;;;;5059334;28;20025;-56
2021/07/03 14:10:22;;;;;;;8.77;4.03;;;24.20;65.60;;;;;;5164617;27;20391;-55
2021/07/03 14:12:48;;;;;;;7.63;4.22;;;24.20;66.10;;;;;;5162483;27;20408;-56
2021/07/03 14:15:13;;;;;;;8.07;4.35;;;24.20;66.10;;;;;;5162052;27;20380;-56
2021/07/03 14:17:39;;;;;;;9.55;4.03;;;24.20;66.10;;;;;;5162444;27;20023;-57
2021/07/03 14:20:07;;;;;;;7.90;4.20;;;24.20;66.20;;;;;;5162248;27;20039;-56
2021/07/03 14:22:33;;;;;;;9.10;4.00;;;24.20;66.20;;;;;;5162000;27;20062;-56
2021/07/03 14:24:59;;;;;;;11.35;4.03;;;24.20;66.20;;;;;;5162186;27;20019;-56
2021/07/03 14:27:25;;;;;;;7.07;4.03;;;24.20;66.20;;;;;;5162299;27;20029;-56
2021/07/03 14:29:51;;;;;;;10.57;4.32;;;24.20;66.30;;;;;;5162001;27;20130;-57
2021/07/03 14:32:17;;;;;;;9.30;3.72;;;24.20;66.30;;;;;;5162144;27;20623;-61
2021/07/03 14:34:42;;;;;;;7.07;4.00;;;24.20;66.30;;;;;;5162014;27;20053;-57
2021/07/03 14:37:41;;;;;;;7.82;4.00;;;24.20;65.80;;;;;;5135083;27;20402;-56
2021/07/03 14:40:08;;;;;;;6.68;3.88;;;24.20;66.40;;;;;;5100415;28;20031;-56
2021/07/03 14:42:34;;;;;;;6.70;3.80;;;24.20;66.30;;;;;;5100631;28;20023;-57
2021/07/03 14:44:59;;;;;;;9.98;4.35;;;24.20;66.30;;;;;;5100123;28;20020;-55
2021/07/03 14:47:25;;;;;;;8.05;4.22;;;24.20;66.30;;;;;;5100210;28;20043;-57
2021/07/03 14:49:51;;;;;;;6.35;4.10;;;24.20;66.30;;;;;;5100333;28;20067;-56
2021/07/03 14:52:17;;;;;;;8.32;3.83;;;24.20;66.30;;;;;;5100129;28;20509;-55
2021/07/03 14:54:44;;;;;;;7.22;4.18;;;24.20;66.20;;;;;;5099649;28;20048;-55
2021/07/03 14:57:10;;;;;;;12.25;5.03;;;24.20;66.50;;;;;;5100218;28;20036;-55
2021/07/03 14:59:35;;;;;;;7.60;3.78;;;24.20;66.30;;;;;;5099884;28;20027;-56
2021/07/03 15:02:02;;;;;;;9.30;3.95;;;24.20;66.20;;;;;;5099985;28;20028;-56
2021/07/03 15:04:27;;;;;;;9.02;3.80;;;24.20;66.40;;;;;;5097446;28;20028;-59
2021/07/03 15:06:53;;;;;;;10.82;4.32;;;24.20;66.40;;;;;;5080424;28;20027;-57
2021/07/03 15:10:51;;;;;;;8.38;4.13;;;24.20;65.90;;;;;;5108987;27;20942;-58
2021/07/03 15:13:16;;;;;;;8.70;4.05;;;24.30;67.00;;;;;;5074537;28;20032;-56
2021/07/03 15:15:42;;;;;;;7.55;3.85;;;24.30;66.50;;;;;;5080267;28;20507;-56
2021/07/03 15:18:08;;;;;;;7.55;4.10;;;24.30;66.70;;;;;;5079856;28;20016;-55
2021/07/03 15:20:33;;;;;;;7.15;4.07;;;24.30;66.70;;;;;;5079930;28;20035;-56
2021/07/03 15:22:59;;;;;;;9.25;4.20;;;24.30;66.60;;;;;;5080017;28;20146;-56
2021/07/03 15:25:25;;;;;;;7.80;3.72;;;24.30;66.50;;;;;;5080005;28;20029;-56
2021/07/03 15:27:50;;;;;;;13.00;4.20;;;24.30;66.50;;;;;;5079717;28;20016;-55
2021/07/03 15:30:19;;;;;;;9.68;5.13;;;24.30;66.50;;;;;;5073009;28;20125;-55
2021/07/03 15:32:52;;;;;;;9.88;5.95;;;24.30;66.90;;;;;;5076508;28;20016;-55
2021/07/03 15:35:19;;;;;;;10.50;5.55;;;24.40;66.60;;;;;;5076488;28;20681;-55
2021/07/03 15:37:45;;;;;;;109.57;94.90;;;24.40;67.10;;;;;;5076446;28;20036;-55
2021/07/03 15:40:11;;;;;;;50.13;40.10;;;24.30;66.50;;;;;;5076673;28;20436;-55
2021/07/03 15:42:37;;;;;;;35.78;30.08;;;24.40;66.60;;;;;;5076380;28;20021;-55
2021/07/03 15:47:26;;;;;;;25.60;21.02;;;24.40;66.30;;;;;;5107628;27;20513;-55
2021/07/03 15:49:52;;;;;;;33.35;27.10;;;24.40;66.70;;;;;;5090473;28;20016;-55
2021/07/03 15:52:18;;;;;;;24.52;19.00;;;24.40;66.80;;;;;;5097104;28;20035;-55
2021/07/03 15:54:44;;;;;;;25.95;18.90;;;24.40;67.00;;;;;;5096880;28;20099;-55
2021/07/03 15:57:10;;;;;;;31.40;24.58;;;24.40;67.10;;;;;;5096820;28;20177;-55
2021/07/03 15:59:36;;;;;;;28.50;22.70;;;24.40;67.10;;;;;;5096922;28;20187;-55
2021/07/03 16:02:04;;;;;;;28.23;22.23;;;24.40;67.20;;;;;;5095567;28;20534;-55
2021/07/03 16:04:33;;;;;;;25.30;20.30;;;24.40;67.10;;;;;;5096470;28;20429;-61
2021/07/03 16:06:59;;;;;;;30.50;22.08;;;24.40;67.10;;;;;;5094223;28;20055;-51
2021/07/03 16:10:00;;;;;;;27.77;23.27;;;24.40;66.70;;;;;;5093346;27;20518;-52
2021/07/03 16:12:26;;;;;;;29.30;23.58;;;24.40;67.10;;;;;;5056723;28;20424;-52
2021/07/03 16:14:51;;;;;;;29.10;22.17;;;24.50;67.10;;;;;;5056782;28;20107;-51
2021/07/03 16:17:17;;;;;;;29.25;23.08;;;24.40;67.00;;;;;;5056655;28;20110;-51
2021/07/03 16:19:43;;;;;;;31.30;26.45;;;24.50;67.10;;;;;;5056309;28;20025;-51
2021/07/03 16:22:12;;;;;;;31.23;24.10;;;24.50;67.10;;;;;;5056443;28;20571;-51
2021/07/03 16:24:38;;;;;;;31.08;26.75;;;24.50;67.10;;;;;;5056302;28;20032;-51
2021/07/03 16:27:03;;;;;;;29.58;24.85;;;24.50;67.10;;;;;;5056241;28;20025;-51
2021/07/03 16:29:29;;;;;;;47.38;25.55;;;24.50;67.00;;;;;;5055771;28;20575;-52
2021/07/03 16:31:55;;;;;;;34.80;23.05;;;24.50;66.90;;;;;;5056219;28;20031;-50
2021/07/03 16:34:21;;;;;;;27.95;22.50;;;24.50;66.80;;;;;;5056195;28;20171;-51
2021/07/03 16:36:47;;;;;;;31.05;21.52;;;24.50;66.70;;;;;;5056175;28;20040;-52
2021/07/03 16:39:12;;;;;;;25.08;20.58;;;24.50;66.60;;;;;;5056104;28;20086;-52
2021/07/03 16:41:38;;;;;;;30.55;21.60;;;24.50;66.60;;;;;;5056115;28;20526;-50
2021/07/03 16:44:50;;;;;;;25.05;20.17;;;24.60;66.10;;;;;;4589726;27;15057199;-51
2021/07/03 16:47:16;;;;;;;26.45;20.50;;;24.60;66.60;;;;;;5137606;27;20015;-52
2021/07/03 16:49:42;;;;;;;28.10;22.38;;;24.60;66.60;;;;;;5123715;27;20032;-52
2021/07/03 16:52:08;;;;;;;32.17;22.75;;;24.50;66.50;;;;;;5116474;28;20094;-52
2021/07/03 16:54:34;;;;;;;30.60;21.98;;;24.60;66.60;;;;;;5116578;27;20074;-51
2021/07/03 16:56:59;;;;;;;29.92;20.63;;;24.60;66.70;;;;;;5116373;27;20105;-51
2021/07/03 16:59:25;;;;;;;31.10;21.23;;;24.60;66.80;;;;;;5117318;27;20027;-51
2021/07/03 17:01:52;;;;;;;33.88;21.17;;;24.60;66.90;;;;;;5117319;27;20356;-51
2021/07/03 17:04:18;;;;;;;30.27;19.83;;;24.60;67.00;;;;;;5117192;27;20450;-51
2021/07/03 17:06:43;;;;;;;30.08;19.20;;;24.60;66.90;;;;;;5117111;27;20011;-52
2021/07/03 17:09:09;;;;;;;30.70;19.45;;;24.60;66.90;;;;;;5116356;27;20028;-51
2021/07/03 17:11:35;;;;;;;27.40;18.30;;;24.60;67.10;;;;;;5116866;27;20106;-51
2021/07/03 17:14:00;;;;;;;24.63;18.38;;;24.60;67.00;;;;;;5116749;27;20122;-52
2021/07/03 17:16:26;;;;;;;24.80;17.00;;;24.60;67.10;;;;;;5117185;27;20023;-51
2021/07/03 17:18:52;;;;;;;21.55;17.00;;;24.60;67.00;;;;;;5117000;27;20115;-53
2021/07/03 17:21:17;;;;;;;20.83;16.17;;;24.70;66.90;;;;;;5115591;28;20022;-52
2021/07/03 17:23:43;;;;;;;20.92;16.77;;;24.70;66.90;;;;;;5116988;27;20039;-51